Time;durP1;ratioP1;P1;durP2;ratioP2;P2;SDS_P1;SDS_P2;PMS_P1;PMS_P2;Temp;Humidity;BMP_temperature;BMP_pressure;BME280_temperature;BME280_humidity;BME280_pressure;Samples;Min_cycle;Max_cycle;Signal;HPM_P1;HPM_P2
2022/06/09 00:02:01;;;;;;;11.05;3.80;;;;;;;13.06;92.60;100746.72;4973204;28;20044;-75
2022/06/09 00:04:33;;;;;;;16.33;4.95;;;;;;;13.05;92.82;100753.16;4995293;28;20441;-76
2022/06/09 00:07:10;;;;;;;9.07;3.95;;;;;;;13.07;92.68;100757.50;4991460;28;20038;-75
2022/06/09 00:09:52;;;;;;;13.57;4.82;;;;;;;13.08;92.43;100761.09;4990232;28;20038;-75
2022/06/09 00:12:18;;;;;;;10.40;4.35;;;;;;;13.08;92.67;100766.56;4973418;28;20042;-76
2022/06/09 00:14:43;;;;;;;17.63;4.85;;;;;;;13.05;92.88;100759.47;4990688;28;20049;-77
2022/06/09 00:17:09;;;;;;;13.38;4.75;;;;;;;13.05;93.25;100764.06;4972669;28;20450;-77
2022/06/09 00:19:34;;;;;;;12.70;4.90;;;;;;;13.05;93.12;100761.34;5001121;28;20113;-76
2022/06/09 00:22:00;;;;;;;13.43;4.38;;;;;;;13.05;93.17;100762.19;4990150;28;20580;-77
2022/06/09 00:24:26;;;;;;;14.02;4.22;;;;;;;13.03;92.71;100747.81;4992136;28;20048;-76
2022/06/09 00:26:51;;;;;;;17.65;4.43;;;;;;;13.02;93.13;100757.03;5009772;28;20038;-75
2022/06/09 00:29:17;;;;;;;18.02;4.60;;;;;;;13.03;93.31;100756.00;4989829;28;20060;-75
2022/06/09 00:31:42;;;;;;;10.45;4.20;;;;;;;13.01;92.72;100756.16;5008279;28;20038;-75
2022/06/09 00:34:08;;;;;;;17.02;4.78;;;;;;;13.04;93.01;100757.75;4999311;28;20108;-74
2022/06/09 00:36:33;;;;;;;11.75;4.47;;;;;;;13.03;92.88;100759.59;4955508;28;20044;-75
2022/06/09 00:38:59;;;;;;;14.68;4.47;;;;;;;13.03;93.07;100769.66;4983860;28;20026;-74
2022/06/09 00:41:25;;;;;;;13.45;4.57;;;;;;;13.04;92.90;100771.41;4989806;28;20034;-74
2022/06/09 00:43:51;;;;;;;15.95;4.72;;;;;;;12.99;92.74;100762.72;4963481;28;20034;-75
2022/06/09 00:46:21;;;;;;;12.73;4.72;;;;;;;12.96;92.63;100772.06;4966217;28;20479;-74
2022/06/09 00:49:01;;;;;;;12.20;4.32;;;;;;;12.92;92.71;100773.31;4995542;28;20045;-75
2022/06/09 00:51:33;;;;;;;15.07;4.88;;;;;;;12.89;92.72;100778.16;4987046;28;20551;-75
2022/06/09 00:54:17;;;;;;;14.75;4.90;;;;;;;12.83;92.71;100776.81;4989618;28;20128;-73
2022/06/09 00:57:01;;;;;;;15.15;4.30;;;;;;;12.76;93.31;100781.03;4982893;28;20453;-75
2022/06/09 00:59:28;;;;;;;13.75;4.78;;;;;;;12.72;92.99;100774.06;4969225;28;20050;-75
2022/06/09 01:01:57;;;;;;;21.75;5.20;;;;;;;12.70;93.00;100778.81;4969573;28;20066;-74
2022/06/09 01:04:24;;;;;;;11.90;3.88;;;;;;;12.68;93.00;100778.06;4974211;28;20172;-75
2022/06/09 01:06:56;;;;;;;18.45;4.47;;;;;;;12.65;92.94;100779.19;4953539;28;20101;-75
2022/06/09 01:09:23;;;;;;;18.52;4.80;;;;;;;12.62;93.04;100770.38;4987675;28;20140;-76
2022/06/09 01:11:52;;;;;;;18.05;6.03;;;;;;;12.65;92.94;100778.31;4987505;28;20042;-74
2022/06/09 01:14:20;;;;;;;19.02;5.10;;;;;;;12.65;93.56;100775.59;4969751;28;20045;-75
2022/06/09 01:17:16;;;;;;;12.57;4.97;;;;;;;12.64;93.32;100774.72;4969590;28;20450;-76
2022/06/09 01:20:07;;;;;;;16.45;5.15;;;;;;;12.62;93.59;100782.16;4985903;28;20041;-74
2022/06/09 01:22:50;;;;;;;12.60;4.50;;;;;;;12.61;93.79;100785.03;4969875;28;20046;-75
2022/06/09 01:25:49;;;;;;;11.70;3.72;;;;;;;12.59;93.10;100790.63;4986857;28;20042;-75
2022/06/09 01:28:49;;;;;;;18.75;5.30;;;;;;;12.59;93.72;100787.00;4970300;28;20041;-73
2022/06/09 01:31:41;;;;;;;16.60;5.55;;;;;;;12.58;94.10;100794.31;4987467;28;20042;-73
2022/06/09 01:34:19;;;;;;;15.85;6.65;;;;;;;12.58;94.17;100793.44;4974500;28;20512;-74
2022/06/09 01:36:51;;;;;;;14.63;4.95;;;;;;;12.59;93.73;100789.72;4986852;28;20054;-74
2022/06/09 01:39:17;;;;;;;17.48;4.93;;;;;;;12.60;94.05;100800.53;4987846;28;20038;-74
2022/06/09 01:41:49;;;;;;;25.63;5.95;;;;;;;12.60;94.13;100796.94;4970280;28;20028;-74
2022/06/09 01:44:17;;;;;;;20.90;6.32;;;;;;;12.61;94.09;100804.13;4988358;28;20039;-73
2022/06/09 01:46:45;;;;;;;15.60;5.78;;;;;;;12.58;93.96;100802.50;4957560;28;20046;-74
2022/06/09 01:49:17;;;;;;;21.75;5.45;;;;;;;12.59;94.31;100807.00;4989555;28;20077;-74
2022/06/09 01:51:45;;;;;;;28.05;6.13;;;;;;;12.59;93.96;100801.53;4990848;28;20453;-74
2022/06/09 01:54:23;;;;;;;19.98;5.57;;;;;;;12.60;94.10;100807.84;4990946;28;20511;-74
2022/06/09 01:56:53;;;;;;;14.90;5.18;;;;;;;12.59;93.98;100808.81;4972975;28;20667;-72
2022/06/09 01:59:36;;;;;;;18.17;5.68;;;;;;;12.57;94.09;100806.22;4989910;28;20054;-73
2022/06/09 02:02:12;;;;;;;18.10;5.80;;;;;;;12.57;93.90;100813.56;4972680;28;20042;-73
2022/06/09 02:04:46;;;;;;;22.70;5.65;;;;;;;12.52;93.97;100812.06;4977605;28;20150;-73
2022/06/09 02:07:13;;;;;;;22.15;5.90;;;;;;;12.51;94.07;100806.75;4990456;28;20042;-73
2022/06/09 02:09:39;;;;;;;15.00;4.90;;;;;;;12.48;93.99;100805.13;4990638;28;20030;-72
2022/06/09 02:12:14;;;;;;;13.35;6.05;;;;;;;12.48;94.11;100804.25;4972954;28;20409;-73
2022/06/09 02:14:44;;;;;;;23.00;6.50;;;;;;;12.45;94.48;100819.03;4972461;28;20049;-72
2022/06/09 02:17:10;;;;;;;16.90;5.20;;;;;;;12.41;94.61;100812.09;4989645;28;20041;-73
2022/06/09 02:19:38;;;;;;;20.20;5.70;;;;;;;12.45;94.27;100824.50;4971445;28;20034;-72
2022/06/09 02:22:05;;;;;;;15.25;6.22;;;;;;;12.46;94.44;100831.69;4990163;28;20114;-75
2022/06/09 02:24:32;;;;;;;17.38;6.18;;;;;;;12.47;94.48;100829.81;4990408;28;20042;-73
2022/06/09 02:26:58;;;;;;;21.70;6.32;;;;;;;12.45;94.79;100829.94;4956767;28;20394;-73
2022/06/09 02:29:24;;;;;;;18.42;6.90;;;;;;;12.44;94.55;100836.38;4971462;28;20695;-73
2022/06/09 02:31:49;;;;;;;23.38;7.35;;;;;;;12.49;94.53;100839.59;4972574;28;20100;-73
2022/06/09 02:34:15;;;;;;;22.90;7.18;;;;;;;12.47;94.51;100841.59;4995658;28;20048;-73
2022/06/09 02:36:40;;;;;;;28.02;6.93;;;;;;;12.48;94.81;100839.72;4989238;28;20038;-74
2022/06/09 02:39:06;;;;;;;24.23;6.93;;;;;;;12.46;94.63;100845.31;4990094;28;20077;-73
2022/06/09 02:41:32;;;;;;;22.42;7.40;;;;;;;12.45;94.88;100840.84;4990097;28;20486;-72
2022/06/09 02:43:58;;;;;;;20.25;6.38;;;;;;;12.46;94.87;100848.03;4955494;28;20038;-73
2022/06/09 02:46:23;;;;;;;22.80;7.75;;;;;;;12.44;94.66;100850.00;4989375;28;20038;-74
2022/06/09 02:48:49;;;;;;;29.38;7.63;;;;;;;12.47;94.77;100854.38;4971596;28;20026;-73
2022/06/09 02:51:26;;;;;;;25.25;7.15;;;;;;;12.44;94.87;100852.75;4971948;28;20116;-74
2022/06/09 02:53:54;;;;;;;23.55;7.40;;;;;;;12.45;94.84;100853.59;4972327;28;20042;-72
2022/06/09 02:56:19;;;;;;;21.90;6.32;;;;;;;12.44;94.32;100857.34;4971349;28;20034;-72
2022/06/09 02:58:44;;;;;;;21.10;6.65;;;;;;;12.45;94.40;100856.34;4971979;28;20127;-73
2022/06/09 03:01:10;;;;;;;25.25;7.55;;;;;;;12.42;94.76;100857.47;4988595;28;20089;-73
2022/06/09 03:03:35;;;;;;;33.85;7.65;;;;;;;12.43;94.50;100855.59;4974325;28;20680;-73
2022/06/09 03:06:01;;;;;;;27.83;8.88;;;;;;;12.45;94.81;100868.16;4992618;28;20037;-74
2022/06/09 03:08:26;;;;;;;26.83;7.47;;;;;;;12.46;94.89;100874.47;4971969;28;20108;-74
2022/06/09 03:10:52;;;;;;;26.20;8.13;;;;;;;12.46;94.38;100874.47;4972105;28;20042;-73
2022/06/09 03:13:17;;;;;;;24.88;7.32;;;;;;;12.47;94.45;100878.94;4989138;28;20820;-73
2022/06/09 03:15:43;;;;;;;21.88;7.32;;;;;;;12.47;94.42;100881.66;4988033;28;20490;-73
2022/06/09 03:18:09;;;;;;;20.02;7.35;;;;;;;12.46;94.85;100883.53;4988855;28;20036;-73
2022/06/09 03:20:34;;;;;;;27.23;7.78;;;;;;;12.49;94.67;100896.03;4986760;28;20044;-74
2022/06/09 03:23:00;;;;;;;31.13;8.15;;;;;;;12.49;94.55;100893.31;4989113;28;20038;-73
2022/06/09 03:25:25;;;;;;;21.80;7.05;;;;;;;12.48;94.53;100899.75;4971684;28;20034;-73
2022/06/09 03:27:51;;;;;;;22.90;8.05;;;;;;;12.44;94.58;100901.84;4971915;28;20033;-73
2022/06/09 03:30:17;;;;;;;26.05;7.57;;;;;;;12.43;94.14;100897.41;4970624;28;20037;-73
2022/06/09 03:32:43;;;;;;;19.42;7.20;;;;;;;12.43;94.22;100905.56;4987760;28;20042;-73
2022/06/09 03:35:09;;;;;;;23.35;8.18;;;;;;;12.41;94.35;100904.84;4998013;28;20771;-74
2022/06/09 03:37:35;;;;;;;21.02;7.10;;;;;;;12.39;94.52;100909.53;4989123;28;20038;-74
2022/06/09 03:40:01;;;;;;;22.55;6.97;;;;;;;12.38;94.36;100923.31;4988956;28;20037;-74
2022/06/09 03:42:26;;;;;;;24.40;7.22;;;;;;;12.36;93.91;100925.31;4988856;28;20113;-74
2022/06/09 03:44:52;;;;;;;19.65;6.70;;;;;;;12.33;93.94;100931.00;4998216;28;20133;-74
2022/06/09 03:47:17;;;;;;;20.33;6.53;;;;;;;12.33;93.42;100931.84;4988325;28;20409;-73
2022/06/09 03:49:43;;;;;;;20.58;7.22;;;;;;;12.31;94.10;100931.13;5001458;28;20066;-74
2022/06/09 03:52:08;;;;;;;23.83;7.63;;;;;;;12.27;93.79;100931.47;5003076;28;20045;-74
2022/06/09 03:54:33;;;;;;;24.20;7.22;;;;;;;12.23;93.95;100930.84;5003729;28;20549;-74
2022/06/09 03:56:59;;;;;;;22.25;7.03;;;;;;;12.17;93.96;100928.56;5006760;28;20041;-74
2022/06/09 03:59:25;;;;;;;18.55;7.18;;;;;;;12.16;94.26;100943.22;5005979;28;20449;-74
2022/06/09 04:01:50;;;;;;;25.52;7.63;;;;;;;12.15;94.08;100950.53;4987456;28;20056;-74
2022/06/09 04:04:15;;;;;;;21.75;7.68;;;;;;;12.14;94.26;100953.38;5002277;28;20033;-74
2022/06/09 04:06:41;;;;;;;29.23;8.20;;;;;;;12.10;94.30;100955.47;4985745;28;20409;-73
2022/06/09 04:09:07;;;;;;;23.45;6.93;;;;;;;12.12;94.14;100966.25;5006049;28;20145;-74
2022/06/09 04:11:32;;;;;;;22.27;7.53;;;;;;;12.11;94.38;100967.25;4988739;28;20033;-73
2022/06/09 04:13:58;;;;;;;22.52;8.15;;;;;;;12.10;93.92;100962.78;5003140;28;20033;-74
2022/06/09 04:16:31;;;;;;;23.38;8.65;;;;;;;12.09;94.21;100966.50;4988103;28;20030;-74
2022/06/09 04:19:03;;;;;;;34.33;7.68;;;;;;;12.08;94.32;100968.38;4969512;28;20052;-74
2022/06/09 04:21:31;;;;;;;21.52;7.75;;;;;;;12.09;94.49;100971.97;4969526;28;20062;-75
2022/06/09 04:23:56;;;;;;;21.63;7.40;;;;;;;12.09;94.29;100974.69;4970785;28;20038;-74
2022/06/09 04:26:25;;;;;;;24.70;7.50;;;;;;;12.08;94.24;100968.38;4988018;28;20045;-74
2022/06/09 04:28:51;;;;;;;29.42;8.43;;;;;;;12.13;94.16;100971.59;4969483;28;20668;-74
2022/06/09 04:31:17;;;;;;;20.17;7.40;;;;;;;12.18;94.17;100979.44;4954611;28;20038;-74
2022/06/09 04:33:44;;;;;;;20.35;8.93;;;;;;;12.16;94.01;100981.38;4957484;28;20041;-73
2022/06/09 04:36:11;;;;;;;21.17;7.78;;;;;;;12.18;94.11;100983.03;4989990;28;20096;-72
2022/06/09 04:38:37;;;;;;;24.08;8.18;;;;;;;12.17;93.65;100985.84;4988254;28;20035;-72
2022/06/09 04:41:10;;;;;;;18.35;6.80;;;;;;;12.23;93.88;100989.00;4970423;28;20529;-74
2022/06/09 04:43:37;;;;;;;24.70;7.45;;;;;;;12.28;93.82;100988.63;4969910;28;20066;-75
2022/06/09 04:46:04;;;;;;;27.70;8.13;;;;;;;12.34;93.35;100984.56;4987102;28;20050;-74
2022/06/09 04:48:29;;;;;;;25.85;7.38;;;;;;;12.37;93.91;100993.38;4987162;28;20057;-74
2022/06/09 04:50:55;;;;;;;20.73;8.23;;;;;;;12.40;93.34;101000.44;4987328;28;20392;-75
2022/06/09 04:53:20;;;;;;;23.55;7.43;;;;;;;12.45;93.61;101003.69;5004207;28;20041;-75
2022/06/09 04:55:45;;;;;;;21.75;7.78;;;;;;;12.48;93.83;100998.84;5002966;28;20050;-73
2022/06/09 04:58:11;;;;;;;17.75;6.72;;;;;;;12.50;93.47;101004.22;4987153;28;20195;-74
2022/06/09 05:00:36;;;;;;;22.52;7.82;;;;;;;12.52;93.65;101014.00;4987328;28;20371;-74
2022/06/09 05:03:02;;;;;;;21.42;7.82;;;;;;;12.58;92.98;101017.25;4969644;28;20372;-74
2022/06/09 05:05:33;;;;;;;18.17;6.88;;;;;;;12.65;93.31;101021.25;4979502;28;20457;-74
2022/06/09 05:07:59;;;;;;;18.98;6.53;;;;;;;12.70;93.00;101024.50;4969794;28;20046;-74
2022/06/09 05:10:26;;;;;;;23.25;7.80;;;;;;;12.76;93.37;101033.06;4987648;28;20042;-74
2022/06/09 05:12:53;;;;;;;28.27;8.38;;;;;;;12.86;93.13;101040.53;4970510;28;20133;-74
2022/06/09 05:15:19;;;;;;;24.98;8.13;;;;;;;12.95;93.05;101042.53;4959377;28;20060;-73
2022/06/09 05:17:46;;;;;;;29.13;9.00;;;;;;;13.08;93.18;101058.81;4987030;28;20030;-74
2022/06/09 05:20:18;;;;;;;20.38;7.40;;;;;;;13.16;92.72;101056.34;4982655;28;20128;-73
2022/06/09 05:22:44;;;;;;;23.95;7.78;;;;;;;13.25;92.42;101059.25;4991986;28;20045;-73
2022/06/09 05:25:10;;;;;;;22.40;7.35;;;;;;;13.37;91.98;101056.50;4986106;28;20417;-74
2022/06/09 05:27:36;;;;;;;19.45;7.32;;;;;;;13.50;92.24;101066.31;4973675;28;20034;-75
2022/06/09 05:30:04;;;;;;;19.83;7.57;;;;;;;13.63;92.03;101060.72;4972153;28;20073;-74
2022/06/09 05:32:30;;;;;;;19.13;6.93;;;;;;;13.78;91.49;101066.78;4968194;28;20022;-74
2022/06/09 05:34:55;;;;;;;21.45;7.78;;;;;;;13.86;91.58;101068.91;4981190;28;20046;-74
2022/06/09 05:37:21;;;;;;;17.67;7.60;;;;;;;13.97;91.60;101077.09;5000469;28;20030;-73
2022/06/09 05:45:16;;;;;;;21.55;6.95;;;;;;;14.10;90.88;101096.09;4975944;28;20516;-75
2022/06/09 05:47:42;;;;;;;19.42;7.13;;;;;;;14.20;90.22;101097.06;4990577;28;20080;-74
2022/06/09 05:50:09;;;;;;;20.58;7.22;;;;;;;14.28;91.13;101095.41;4989535;28;20600;-74
2022/06/09 05:52:35;;;;;;;22.27;6.97;;;;;;;14.45;90.56;101093.09;4990517;28;20038;-74
2022/06/09 05:55:01;;;;;;;18.42;7.15;;;;;;;14.64;90.08;101098.81;4990693;28;20060;-74
2022/06/09 05:57:27;;;;;;;18.00;7.25;;;;;;;14.84;89.55;101109.91;4973330;28;20561;-74
2022/06/09 05:59:54;;;;;;;18.20;6.47;;;;;;;15.03;89.17;101105.44;4989980;28;20058;-74
2022/06/09 06:02:21;;;;;;;21.75;6.65;;;;;;;15.14;87.69;101107.25;5001001;28;20025;-75
2022/06/09 06:04:47;;;;;;;18.17;6.05;;;;;;;15.28;87.91;101114.25;4985299;28;20030;-75
2022/06/09 06:07:13;;;;;;;17.23;5.88;;;;;;;15.39;87.15;101113.28;4987722;28;20028;-75
2022/06/09 06:09:39;;;;;;;17.77;6.63;;;;;;;15.54;87.53;101118.31;4989569;28;20034;-75
2022/06/09 06:12:05;;;;;;;21.52;6.15;;;;;;;15.75;87.06;101123.75;5007701;28;20111;-73
2022/06/09 06:14:30;;;;;;;14.27;6.00;;;;;;;15.88;85.90;101134.50;5002565;28;20635;-75
2022/06/09 06:16:56;;;;;;;17.67;5.50;;;;;;;15.90;84.66;101131.63;4988818;28;20113;-74
2022/06/09 06:19:23;;;;;;;17.17;5.00;;;;;;;15.86;85.01;101133.78;4985949;28;20044;-74
2022/06/09 06:21:51;;;;;;;17.00;5.10;;;;;;;15.82;85.00;101132.31;4973708;28;20065;-74
2022/06/09 06:24:19;;;;;;;12.02;3.95;;;;;;;15.72;84.63;101142.41;5010687;28;20029;-74
2022/06/09 06:26:45;;;;;;;18.35;4.68;;;;;;;15.60;83.76;101146.19;4992748;28;20468;-75
2022/06/09 06:29:18;;;;;;;12.10;4.43;;;;;;;15.58;84.88;101151.81;4978542;28;20124;-75
2022/06/09 06:31:44;;;;;;;13.50;4.75;;;;;;;15.57;85.38;101150.06;4991166;28;20053;-75
2022/06/09 06:34:10;;;;;;;13.32;4.47;;;;;;;15.62;85.86;101160.63;5002968;28;20033;-75
2022/06/09 06:36:36;;;;;;;12.55;4.18;;;;;;;15.63;85.31;101163.25;4989067;28;20046;-74
2022/06/09 06:39:02;;;;;;;13.80;4.78;;;;;;;15.58;84.71;101165.53;4990044;28;20097;-75
2022/06/09 06:41:27;;;;;;;10.85;3.90;;;;;;;15.50;84.47;101159.84;4973016;28;20517;-74
2022/06/09 06:43:53;;;;;;;14.30;4.38;;;;;;;15.47;85.90;101173.81;4971761;28;20065;-75
2022/06/09 06:46:18;;;;;;;11.40;4.35;;;;;;;15.46;86.06;101170.22;4992787;28;20062;-75
2022/06/09 06:48:45;;;;;;;14.85;4.30;;;;;;;15.50;84.94;101187.28;4989606;28;20552;-74
2022/06/09 06:51:11;;;;;;;17.60;4.97;;;;;;;15.44;85.16;101187.81;4971506;28;20244;-75
2022/06/09 06:53:38;;;;;;;14.90;4.57;;;;;;;15.40;85.84;101200.91;4971773;28;20403;-74
2022/06/09 06:56:04;;;;;;;16.23;4.40;;;;;;;15.36;85.56;101202.19;4972514;28;20042;-75
2022/06/09 06:58:30;;;;;;;9.88;4.70;;;;;;;15.44;86.70;101209.75;4989736;28;20057;-75
2022/06/09 07:00:57;;;;;;;11.75;4.45;;;;;;;15.45;86.48;101214.22;4988789;28;20391;-75
2022/06/09 07:03:23;;;;;;;8.27;4.20;;;;;;;15.45;85.28;101197.78;4997062;28;20040;-74
2022/06/09 07:05:49;;;;;;;12.65;4.38;;;;;;;15.46;85.23;101205.84;4996196;28;20084;-75
2022/06/09 07:08:16;;;;;;;8.35;3.75;;;;;;;15.53;85.66;101206.22;4994429;28;20359;-74
2022/06/09 07:10:42;;;;;;;11.98;3.72;;;;;;;15.59;85.06;101210.28;5009286;28;20041;-75
2022/06/09 07:13:08;;;;;;;8.35;4.07;;;;;;;15.72;85.31;101220.06;5002083;28;20842;-74
2022/06/09 07:15:34;;;;;;;12.27;4.65;;;;;;;15.77;85.56;101220.53;4976364;28;20026;-74
2022/06/09 07:17:59;;;;;;;10.35;4.63;;;;;;;15.88;84.62;101226.94;5005886;28;20073;-76
2022/06/09 07:20:25;;;;;;;8.15;4.72;;;;;;;15.99;85.11;101235.97;4969253;28;20064;-75
2022/06/09 07:22:52;;;;;;;12.60;3.80;;;;;;;16.06;83.71;101230.78;4989295;28;20039;-75
2022/06/09 07:25:23;;;;;;;9.00;3.78;;;;;;;16.11;83.43;101239.47;4989459;28;20343;-76
2022/06/09 07:27:48;;;;;;;8.88;3.50;;;;;;;16.14;83.98;101241.09;4988931;28;20034;-72
2022/06/09 07:30:15;;;;;;;6.85;3.25;;;;;;;16.18;83.48;101240.69;4972336;28;20072;-75
2022/06/09 07:32:41;;;;;;;7.55;3.90;;;;;;;16.16;82.79;101242.69;4988952;28;20564;-76
2022/06/09 07:35:08;;;;;;;10.88;3.80;;;;;;;16.16;81.94;101239.06;4996147;28;20042;-76
2022/06/09 07:37:33;;;;;;;10.10;4.47;;;;;;;16.23;81.78;101243.00;4989165;28;20045;-76
2022/06/09 07:39:59;;;;;;;11.75;4.72;;;;;;;16.47;81.54;101239.91;4989041;28;20405;-75
2022/06/09 07:42:26;;;;;;;7.43;4.13;;;;;;;16.59;79.79;101242.38;4971168;28;20462;-75
2022/06/09 07:44:52;;;;;;;7.68;3.90;;;;;;;16.74;79.65;101239.28;4954357;28;20184;-75
2022/06/09 07:47:17;;;;;;;10.73;3.90;;;;;;;16.87;79.76;101237.13;5001038;28;20117;-75
2022/06/09 07:49:43;;;;;;;5.75;2.33;;;;;;;17.17;79.38;101243.53;5003023;28;20097;-74
2022/06/09 07:52:08;;;;;;;6.35;3.20;;;;;;;17.42;77.88;101242.94;4985177;28;20666;-74
2022/06/09 07:54:34;;;;;;;6.00;2.40;;;;;;;17.63;78.37;101239.19;4990181;28;20120;-75
2022/06/09 07:56:59;;;;;;;6.15;2.40;;;;;;;17.82;75.89;101239.16;4970205;28;20046;-75
2022/06/09 07:59:24;;;;;;;5.75;1.80;;;;;;;18.04;76.29;101254.44;4958271;28;20053;-75
2022/06/09 08:01:50;;;;;;;5.78;1.83;;;;;;;18.27;73.46;101255.81;4973103;28;20065;-73
2022/06/09 08:04:16;;;;;;;2.70;1.50;;;;;;;18.31;74.18;101259.13;4967046;28;20117;-73
2022/06/09 08:06:41;;;;;;;2.40;1.40;;;;;;;18.29;73.03;101262.06;5001333;28;20863;-75
2022/06/09 08:09:07;;;;;;;1.95;1.40;;;;;;;18.48;71.48;101260.25;5005229;28;20037;-75
2022/06/09 08:11:35;;;;;;;1.98;1.13;;;;;;;18.80;72.71;101262.56;5008329;28;20113;-76
2022/06/09 08:14:03;;;;;;;2.92;1.58;;;;;;;19.07;71.53;101258.88;5005746;28;20335;-75
2022/06/09 08:16:29;;;;;;;4.97;1.50;;;;;;;19.17;71.14;101265.22;4988990;28;20030;-76
2022/06/09 08:18:55;;;;;;;4.18;1.30;;;;;;;19.30;70.58;101275.84;4987547;28;20168;-76
2022/06/09 08:21:20;;;;;;;3.13;1.40;;;;;;;19.24;71.02;101270.97;5003236;28;20029;-73
2022/06/09 08:23:46;;;;;;;2.50;1.10;;;;;;;19.26;70.98;101274.44;5006538;28;20041;-75
2022/06/09 08:26:11;;;;;;;3.70;1.40;;;;;;;19.59;68.47;101287.53;4988130;28;20038;-75
2022/06/09 08:28:37;;;;;;;3.17;1.23;;;;;;;19.82;69.62;101290.69;5001201;28;20029;-74
2022/06/09 08:31:02;;;;;;;4.22;1.00;;;;;;;19.80;67.80;101286.31;5006770;28;20385;-75
2022/06/09 08:33:27;;;;;;;4.25;1.17;;;;;;;19.90;67.85;101295.38;4986804;28;20053;-78
2022/06/09 08:35:54;;;;;;;2.67;1.13;;;;;;;19.87;66.65;101302.09;5001267;28;20030;-75
2022/06/09 08:38:20;;;;;;;4.05;1.35;;;;;;;19.86;68.48;101305.91;4983248;28;20224;-76
2022/06/09 08:40:58;;;;;;;2.42;1.20;;;;;;;19.68;68.88;101310.56;5000558;28;20711;-74
2022/06/09 08:43:45;;;;;;;2.58;1.20;;;;;;;19.48;70.13;101312.56;4970866;28;20034;-75
2022/06/09 08:46:53;;;;;;;3.33;1.05;;;;;;;19.28;68.10;101325.66;5003843;28;20042;-76
2022/06/09 08:49:30;;;;;;;2.08;0.75;;;;;;;18.94;65.48;101327.34;4994092;28;20530;-73
2022/06/09 08:52:15;;;;;;;1.83;0.80;;;;;;;18.71;63.08;101325.00;4984383;28;20046;-76
2022/06/09 08:54:41;;;;;;;2.65;1.05;;;;;;;18.70;65.31;101323.25;4986811;28;20026;-75
2022/06/09 08:57:15;;;;;;;1.83;0.93;;;;;;;18.65;63.95;101327.44;4997341;28;20553;-77
2022/06/09 08:59:42;;;;;;;2.10;0.73;;;;;;;18.68;66.34;101327.16;4969674;28;20585;-75
2022/06/09 09:02:24;;;;;;;1.70;1.00;;;;;;;18.66;65.80;101335.56;4995115;28;20040;-76
2022/06/09 09:05:01;;;;;;;3.50;1.40;;;;;;;18.70;66.86;101330.63;4997381;28;20050;-75
2022/06/09 09:07:31;;;;;;;3.47;1.50;;;;;;;18.83;68.01;101342.19;4999124;28;20069;-75
2022/06/09 09:10:12;;;;;;;1.73;1.20;;;;;;;18.94;68.97;101352.16;5003548;28;20033;-75
2022/06/09 09:12:50;;;;;;;1.80;1.38;;;;;;;18.77;67.25;101345.56;4974683;28;20140;-77
2022/06/09 09:15:26;;;;;;;3.78;1.40;;;;;;;18.69;68.67;101346.31;4988464;28;20065;-75
2022/06/09 09:18:15;;;;;;;5.57;1.85;;;;;;;18.74;69.67;101351.38;5003386;28;20046;-76
2022/06/09 09:20:57;;;;;;;4.53;1.80;;;;;;;18.74;70.04;101348.63;4987975;28;20096;-76
2022/06/09 09:23:46;;;;;;;5.57;1.75;;;;;;;19.02;70.97;101360.53;4984550;28;20068;-73
2022/06/09 09:26:37;;;;;;;4.68;2.20;;;;;;;19.04;69.43;101364.88;4974378;28;20038;-76
2022/06/09 09:29:11;;;;;;;6.32;2.28;;;;;;;19.17;71.26;101359.00;5006640;28;20046;-74
2022/06/09 09:32:01;;;;;;;4.13;1.85;;;;;;;19.26;68.83;101363.59;5000698;28;20052;-75
2022/06/09 09:34:36;;;;;;;4.47;2.30;;;;;;;19.37;69.62;101377.16;5001143;28;20034;-76
2022/06/09 09:37:25;;;;;;;4.93;2.50;;;;;;;19.25;67.60;101377.53;4998048;28;20494;-74
2022/06/09 09:39:54;;;;;;;8.10;3.25;;;;;;;19.13;68.48;101374.13;5007309;28;20103;-75
2022/06/09 09:42:24;;;;;;;7.25;2.85;;;;;;;19.25;71.12;101383.91;4995336;28;20125;-75
2022/06/09 09:45:18;;;;;;;6.20;2.97;;;;;;;19.43;70.91;101383.06;5002377;28;20061;-74
2022/06/09 09:47:57;;;;;;;6.07;3.55;;;;;;;19.48;68.84;101381.56;4965101;28;20508;-74
2022/06/09 09:50:29;;;;;;;4.68;3.33;;;;;;;19.30;67.27;101384.31;4982525;28;20030;-75
2022/06/09 09:52:59;;;;;;;7.45;3.55;;;;;;;19.23;68.67;101376.81;5000501;28;20042;-75
2022/06/09 09:55:34;;;;;;;7.03;3.95;;;;;;;19.58;70.96;101396.19;4985994;28;20033;-75
2022/06/09 09:58:33;;;;;;;7.63;3.90;;;;;;;19.81;68.96;101395.75;5006680;28;20482;-75
2022/06/09 10:01:04;;;;;;;7.22;3.75;;;;;;;19.81;69.23;101404.91;4989741;28;20128;-75
2022/06/09 10:09:19;;;;;;;7.47;4.10;;;;;;;20.50;67.46;101399.63;4984873;28;20034;-75
2022/06/09 10:11:54;;;;;;;8.63;4.63;;;;;;;20.70;65.63;101409.44;5000057;28;20049;-75
2022/06/09 10:14:37;;;;;;;7.20;4.28;;;;;;;21.14;67.53;101415.72;5001757;28;20049;-74
2022/06/09 10:17:08;;;;;;;6.13;4.43;;;;;;;21.24;65.20;101417.50;5008216;28;20057;-76
2022/06/09 10:19:34;;;;;;;5.57;4.32;;;;;;;21.21;64.78;101424.22;4988197;28;20030;-78
2022/06/09 10:22:15;;;;;;;7.20;5.40;;;;;;;21.05;64.54;101418.63;4999157;28;20038;-76
2022/06/09 10:24:58;;;;;;;9.10;5.15;;;;;;;20.78;65.39;101420.56;4991114;28;20065;-75
2022/06/09 10:27:33;;;;;;;7.45;5.82;;;;;;;20.64;66.76;101418.38;4990957;28;20121;-75
2022/06/09 10:29:58;;;;;;;8.18;6.15;;;;;;;;;;4971621;28;20105;-75
2022/06/09 10:32:33;;;;;;;9.67;6.17;;;;;;;20.52;67.62;101416.94;4990903;28;20810;-75
2022/06/09 10:35:10;;;;;;;7.75;6.43;;;;;;;20.50;66.36;101417.09;4955699;28;20297;-75
2022/06/09 10:37:41;;;;;;;7.72;6.38;;;;;;;20.52;66.18;101426.09;4990517;28;20444;-75
2022/06/09 10:40:18;;;;;;;8.63;7.00;;;;;;;20.42;65.66;101433.56;4995395;28;20092;-75
2022/06/09 10:42:55;;;;;;;10.77;7.30;;;;;;;20.49;68.43;101425.56;5006842;28;20505;-73
2022/06/09 10:45:32;;;;;;;10.13;7.05;;;;;;;20.73;68.94;101433.13;4999580;28;20559;-76
2022/06/09 10:57:36;;;;;;;9.73;5.03;;;;;;;21.96;59.16;101435.38;4999229;28;20084;-75
2022/06/09 11:00:13;;;;;;;6.22;4.47;;;;;;;21.71;61.55;101440.00;5001822;28;20478;-76
2022/06/09 11:02:40;;;;;;;10.77;4.05;;;;;;;22.07;60.88;101434.19;5004071;28;20465;-75
2022/06/09 11:05:06;;;;;;;4.93;3.25;;;;;;;22.38;61.67;101429.72;4997798;28;20042;-75
2022/06/09 11:07:57;;;;;;;5.88;3.03;;;;;;;22.97;64.03;101436.94;5001840;28;20430;-76
2022/06/09 11:10:36;;;;;;;11.27;3.88;;;;;;;23.26;55.94;101431.63;5004897;28;20129;-75
2022/06/09 11:13:26;;;;;;;7.93;2.90;;;;;;;23.34;59.95;101436.28;4968599;28;20129;-75
2022/06/09 11:16:11;;;;;;;5.10;2.78;;;;;;;23.38;55.46;101446.84;4993974;28;20042;-77
2022/06/09 11:18:49;;;;;;;7.60;2.60;;;;;;;23.36;58.30;101446.19;4993780;28;20034;-75
2022/06/09 11:22:01;;;;;;;4.75;2.40;;;;;;;23.84;59.13;101448.91;4993879;28;20046;-76
2022/06/09 11:24:43;;;;;;;6.50;2.38;;;;;;;23.78;53.24;101442.16;4945858;28;20503;-75
2022/06/09 11:27:15;;;;;;;6.30;2.13;;;;;;;23.68;57.15;101455.41;4991172;28;20056;-75
2022/06/09 11:29:47;;;;;;;6.30;2.30;;;;;;;23.28;51.21;101457.31;4990465;28;20045;-76
2022/06/09 11:32:31;;;;;;;7.25;2.00;;;;;;;22.97;50.96;101445.25;4970047;28;20037;-75
2022/06/09 11:35:05;;;;;;;5.20;2.20;;;;;;;23.18;55.87;101459.44;4997115;28;20034;-76
2022/06/09 11:38:04;;;;;;;8.23;2.25;;;;;;;23.41;56.30;101453.97;5006161;28;20044;-76
2022/06/09 11:40:56;;;;;;;5.30;2.17;;;;;;;23.09;54.95;101466.91;4970861;28;20046;-77
2022/06/09 11:43:37;;;;;;;7.13;1.80;;;;;;;22.58;55.93;101465.41;4988509;28;20046;-76
2022/06/09 11:46:09;;;;;;;9.13;2.00;;;;;;;22.30;53.80;101470.44;4970671;28;20081;-75
2022/06/09 11:48:39;;;;;;;8.40;1.98;;;;;;;22.19;55.18;101459.69;4970480;28;20041;-75
2022/06/09 11:51:05;;;;;;;5.10;1.88;;;;;;;21.98;55.54;101472.09;4990351;28;20084;-76
2022/06/09 11:53:48;;;;;;;5.93;1.70;;;;;;;21.89;56.18;101473.13;4991164;28;20026;-75
2022/06/09 11:56:45;;;;;;;6.80;2.25;;;;;;;22.03;58.60;101477.13;5007674;28;20045;-75
2022/06/09 11:59:10;;;;;;;6.22;1.90;;;;;;;21.97;56.13;101484.22;4966976;28;20500;-75